sensor_id;sensor_type;location;lat;lon;timestamp;pressure;altitude;pressure_sealevel;temperature;humidity
68193;BME280;55012;47.562;18.414;2024-02-04T00:01:58;99138.25;;;7.36;100.00
68193;BME280;55012;47.562;18.414;2024-02-04T00:04:23;99138.56;;;7.35;100.00
68193;BME280;55012;47.562;18.414;2024-02-04T00:06:49;99151.25;;;7.34;100.00
68193;BME280;55012;47.562;18.414;2024-02-04T00:09:14;99134.13;;;7.39;100.00
68193;BME280;55012;47.562;18.414;2024-02-04T00:11:40;99132.25;;;7.39;100.00
68193;BME280;55012;47.562;18.414;2024-02-04T00:14:05;99117.22;;;7.38;100.00
68193;BME280;55012;47.562;18.414;2024-02-04T00:16:30;99096.63;;;7.33;100.00
68193;BME280;55012;47.562;18.414;2024-02-04T00:18:56;99107.41;;;7.33;100.00
68193;BME280;55012;47.562;18.414;2024-02-04T00:21:21;99088.38;;;7.39;100.00
68193;BME280;55012;47.562;18.414;2024-02-04T00:23:46;99110.03;;;7.42;100.00
68193;BME280;55012;47.562;18.414;2024-02-04T00:26:12;99106.06;;;7.48;100.00
68193;BME280;55012;47.562;18.414;2024-02-04T00:28:37;99098.09;;;7.52;100.00
68193;BME280;55012;47.562;18.414;2024-02-04T00:31:02;99068.38;;;7.48;100.00
68193;BME280;55012;47.562;18.414;2024-02-04T00:33:28;99060.75;;;7.50;100.00
68193;BME280;55012;47.562;18.414;2024-02-04T00:35:53;99058.72;;;7.47;100.00
68193;BME280;55012;47.562;18.414;2024-02-04T00:38:18;99046.38;;;7.46;100.00
68193;BME280;55012;47.562;18.414;2024-02-04T00:40:44;99052.88;;;7.45;100.00
68193;BME280;55012;47.562;18.414;2024-02-04T00:43:09;99019.47;;;7.46;100.00
68193;BME280;55012;47.562;18.414;2024-02-04T00:45:35;99027.66;;;7.50;100.00
68193;BME280;55012;47.562;18.414;2024-02-04T00:48:01;98991.09;;;7.49;100.00
68193;BME280;55012;47.562;18.414;2024-02-04T00:50:26;98994.69;;;7.53;100.00
68193;BME280;55012;47.562;18.414;2024-02-04T00:52:51;98961.59;;;7.52;100.00
68193;BME280;55012;47.562;18.414;2024-02-04T00:55:19;98967.31;;;7.51;100.00
68193;BME280;55012;47.562;18.414;2024-02-04T00:57:44;98928.06;;;7.50;100.00
68193;BME280;55012;47.562;18.414;2024-02-04T01:00:10;98907.88;;;7.44;100.00
68193;BME280;55012;47.562;18.414;2024-02-04T01:02:36;98911.34;;;7.44;100.00
68193;BME280;55012;47.562;18.414;2024-02-04T01:05:01;98863.56;;;7.41;100.00
68193;BME280;55012;47.562;18.414;2024-02-04T01:07:26;98850.00;;;7.38;100.00
68193;BME280;55012;47.562;18.414;2024-02-04T01:09:52;98817.72;;;7.38;100.00
68193;BME280;55012;47.562;18.414;2024-02-04T01:12:17;98774.97;;;7.36;100.00
68193;BME280;55012;47.562;18.414;2024-02-04T01:14:42;98778.78;;;7.35;100.00
68193;BME280;55012;47.562;18.414;2024-02-04T01:17:08;98771.41;;;7.32;100.00
68193;BME280;55012;47.562;18.414;2024-02-04T01:19:33;98740.56;;;7.29;100.00
68193;BME280;55012;47.562;18.414;2024-02-04T01:21:58;98751.34;;;7.29;100.00
68193;BME280;55012;47.562;18.414;2024-02-04T01:24:24;98716.03;;;7.31;100.00
68193;BME280;55012;47.562;18.414;2024-02-04T01:26:50;98706.47;;;7.33;100.00
68193;BME280;55012;47.562;18.414;2024-02-04T01:29:15;98675.75;;;7.35;100.00
68193;BME280;55012;47.562;18.414;2024-02-04T01:31:41;98651.19;;;7.36;100.00
68193;BME280;55012;47.562;18.414;2024-02-04T01:34:07;98636.19;;;7.35;100.00
68193;BME280;55012;47.562;18.414;2024-02-04T01:36:32;98618.47;;;7.34;100.00
68193;BME280;55012;47.562;18.414;2024-02-04T01:38:58;98610.31;;;7.30;100.00
68193;BME280;55012;47.562;18.414;2024-02-04T01:41:23;98605.94;;;7.26;100.00
68193;BME280;55012;47.562;18.414;2024-02-04T01:43:51;98615.03;;;7.21;100.00
68193;BME280;55012;47.562;18.414;2024-02-04T01:46:16;98590.34;;;7.19;100.00
68193;BME280;55012;47.562;18.414;2024-02-04T01:48:42;98593.81;;;7.20;100.00
68193;BME280;55012;47.562;18.414;2024-02-04T01:51:08;98582.41;;;7.23;100.00
68193;BME280;55012;47.562;18.414;2024-02-04T01:53:34;98554.38;;;7.24;100.00
68193;BME280;55012;47.562;18.414;2024-02-04T01:56:02;98570.41;;;7.20;100.00
68193;BME280;55012;47.562;18.414;2024-02-04T01:58:27;98561.09;;;7.18;100.00
68193;BME280;55012;47.562;18.414;2024-02-04T02:00:53;98566.38;;;7.14;100.00
68193;BME280;55012;47.562;18.414;2024-02-04T02:03:19;98543.09;;;7.06;100.00
68193;BME280;55012;47.562;18.414;2024-02-04T02:05:45;98543.44;;;7.04;100.00
68193;BME280;55012;47.562;18.414;2024-02-04T02:08:12;98538.38;;;7.03;100.00
68193;BME280;55012;47.562;18.414;2024-02-04T02:10:37;98529.97;;;7.04;100.00
68193;BME280;55012;47.562;18.414;2024-02-04T02:13:09;98526.81;;;7.02;100.00
68193;BME280;55012;47.562;18.414;2024-02-04T02:15:40;98527.94;;;7.01;100.00
68193;BME280;55012;47.562;18.414;2024-02-04T02:18:23;98528.97;;;6.97;100.00
68193;BME280;55012;47.562;18.414;2024-02-04T02:26:38;98549.25;;;6.94;100.00
68193;BME280;55012;47.562;18.414;2024-02-04T02:29:05;98565.63;;;6.89;100.00
68193;BME280;55012;47.562;18.414;2024-02-04T02:31:34;98560.25;;;6.89;100.00
68193;BME280;55012;47.562;18.414;2024-02-04T02:34:00;98572.44;;;6.87;100.00
68193;BME280;55012;47.562;18.414;2024-02-04T02:36:27;98572.44;;;6.87;100.00
68193;BME280;55012;47.562;18.414;2024-02-04T02:39:34;98587.69;;;6.83;100.00
68193;BME280;55012;47.562;18.414;2024-02-04T02:42:04;98583.28;;;6.78;100.00
68193;BME280;55012;47.562;18.414;2024-02-04T02:44:30;98598.63;;;6.78;100.00
68193;BME280;55012;47.562;18.414;2024-02-04T02:46:57;98590.25;;;6.79;100.00
68193;BME280;55012;47.562;18.414;2024-02-04T02:49:23;98576.03;;;6.79;100.00
68193;BME280;55012;47.562;18.414;2024-02-04T02:51:49;98576.34;;;6.77;100.00
68193;BME280;55012;47.562;18.414;2024-02-04T02:54:14;98578.16;;;6.73;100.00
68193;BME280;55012;47.562;18.414;2024-02-04T02:56:39;98577.03;;;6.74;100.00
68193;BME280;55012;47.562;18.414;2024-02-04T02:59:05;98586.88;;;6.70;100.00
68193;BME280;55012;47.562;18.414;2024-02-04T03:01:30;98589.91;;;6.68;100.00
68193;BME280;55012;47.562;18.414;2024-02-04T03:03:56;98597.84;;;6.65;100.00
68193;BME280;55012;47.562;18.414;2024-02-04T03:06:21;98600.41;;;6.61;100.00
68193;BME280;55012;47.562;18.414;2024-02-04T03:08:47;98603.00;;;6.58;100.00
68193;BME280;55012;47.562;18.414;2024-02-04T03:11:12;98612.19;;;6.57;100.00
68193;BME280;55012;47.562;18.414;2024-02-04T03:13:38;98609.59;;;6.60;100.00
68193;BME280;55012;47.562;18.414;2024-02-04T03:16:04;98595.81;;;6.62;100.00
68193;BME280;55012;47.562;18.414;2024-02-04T03:18:30;98604.03;;;6.65;100.00
68193;BME280;55012;47.562;18.414;2024-02-04T03:20:55;98604.47;;;6.67;100.00
68193;BME280;55012;47.562;18.414;2024-02-04T03:23:20;98607.38;;;6.74;100.00
68193;BME280;55012;47.562;18.414;2024-02-04T03:25:46;98599.75;;;6.76;100.00
68193;BME280;55012;47.562;18.414;2024-02-04T03:28:11;98590.25;;;6.79;100.00
68193;BME280;55012;47.562;18.414;2024-02-04T03:30:36;98599.75;;;6.76;100.00
68193;BME280;55012;47.562;18.414;2024-02-04T03:33:02;98604.69;;;6.74;100.00
68193;BME280;55012;47.562;18.414;2024-02-04T03:35:27;98620.72;;;6.71;100.00
68193;BME280;55012;47.562;18.414;2024-02-04T03:37:53;98628.31;;;6.69;100.00
68193;BME280;55012;47.562;18.414;2024-02-04T03:40:18;98634.25;;;6.62;100.00
68193;BME280;55012;47.562;18.414;2024-02-04T03:42:44;98640.03;;;6.52;100.00
68193;BME280;55012;47.562;18.414;2024-02-04T03:45:10;98629.72;;;6.42;100.00
68193;BME280;55012;47.562;18.414;2024-02-04T03:47:35;98624.31;;;6.30;100.00
68193;BME280;55012;47.562;18.414;2024-02-04T03:50:00;98620.00;;;6.16;100.00
68193;BME280;55012;47.562;18.414;2024-02-04T03:52:26;98595.41;;;6.14;100.00
68193;BME280;55012;47.562;18.414;2024-02-04T03:54:51;98588.13;;;6.15;100.00
68193;BME280;55012;47.562;18.414;2024-02-04T03:57:16;98555.56;;;6.16;100.00
68193;BME280;55012;47.562;18.414;2024-02-04T03:59:45;98536.56;;;6.22;100.00
68193;BME280;55012;47.562;18.414;2024-02-04T04:02:11;98502.31;;;6.31;100.00
68193;BME280;55012;47.562;18.414;2024-02-04T04:04:39;98439.31;;;6.40;100.00
68193;BME280;55012;47.562;18.414;2024-02-04T04:07:05;98402.69;;;6.48;100.00
68193;BME280;55012;47.562;18.414;2024-02-04T04:09:31;98374.81;;;6.53;100.00
68193;BME280;55012;47.562;18.414;2024-02-04T04:11:56;98347.38;;;6.59;100.00
68193;BME280;55012;47.562;18.414;2024-02-04T04:14:21;98339.50;;;6.66;100.00
68193;BME280;55012;47.562;18.414;2024-02-04T04:16:47;98301.88;;;6.66;100.00
68193;BME280;55012;47.562;18.414;2024-02-04T04:19:12;98287.66;;;6.66;100.00
68193;BME280;55012;47.562;18.414;2024-02-04T04:21:38;98276.13;;;6.65;100.00
68193;BME280;55012;47.562;18.414;2024-02-04T04:24:04;98261.50;;;6.63;100.00
68193;BME280;55012;47.562;18.414;2024-02-04T04:26:29;98262.94;;;6.60;100.00
68193;BME280;55012;47.562;18.414;2024-02-04T04:28:54;98261.03;;;6.61;100.00
68193;BME280;55012;47.562;18.414;2024-02-04T04:31:20;98254.22;;;6.63;100.00
68193;BME280;55012;47.562;18.414;2024-02-04T04:33:45;98238.50;;;6.65;100.00
68193;BME280;55012;47.562;18.414;2024-02-04T04:36:10;98230.88;;;6.67;100.00
68193;BME280;55012;47.562;18.414;2024-02-04T04:38:36;98230.88;;;6.67;100.00
68193;BME280;55012;47.562;18.414;2024-02-04T04:41:01;98242.41;;;6.68;100.00
68193;BME280;55012;47.562;18.414;2024-02-04T04:43:26;98212.50;;;6.69;100.00
68193;BME280;55012;47.562;18.414;2024-02-04T04:45:52;98207.91;;;6.70;100.00
68193;BME280;55012;47.562;18.414;2024-02-04T04:48:17;98194.94;;;6.72;100.00
68193;BME280;55012;47.562;18.414;2024-02-04T04:50:43;98179.03;;;6.67;100.00
68193;BME280;55012;47.562;18.414;2024-02-04T04:53:08;98192.06;;;6.65;100.00
68193;BME280;55012;47.562;18.414;2024-02-04T04:55:33;98179.41;;;6.65;100.00
68193;BME280;55012;47.562;18.414;2024-02-04T04:57:59;98177.50;;;6.66;100.00
68193;BME280;55012;47.562;18.414;2024-02-04T05:00:24;98163.63;;;6.64;100.00
68193;BME280;55012;47.562;18.414;2024-02-04T05:02:49;98185.13;;;6.64;100.00
68193;BME280;55012;47.562;18.414;2024-02-04T05:05:15;98188.16;;;6.62;100.00
68193;BME280;55012;47.562;18.414;2024-02-04T05:07:40;98189.59;;;6.60;100.00
68193;BME280;55012;47.562;18.414;2024-02-04T05:10:06;98188.59;;;6.64;100.00
68193;BME280;55012;47.562;18.414;2024-02-04T05:12:32;98180.94;;;6.66;100.00
68193;BME280;55012;47.562;18.414;2024-02-04T05:14:58;98147.56;;;6.67;100.00
68193;BME280;55012;47.562;18.414;2024-02-04T05:17:24;98169.44;;;6.66;100.00
68193;BME280;55012;47.562;18.414;2024-02-04T05:19:49;98179.81;;;6.67;100.00
68193;BME280;55012;47.562;18.414;2024-02-04T05:22:14;98197.78;;;6.63;100.00
68193;BME280;55012;47.562;18.414;2024-02-04T05:24:41;98174.44;;;6.67;100.00
68193;BME280;55012;47.562;18.414;2024-02-04T05:27:06;98174.09;;;6.69;100.00
68193;BME280;55012;47.562;18.414;2024-02-04T05:29:31;98183.41;;;6.71;100.00
68193;BME280;55012;47.562;18.414;2024-02-04T05:31:57;98193.44;;;6.74;100.00
68193;BME280;55012;47.562;18.414;2024-02-04T05:34:22;98211.41;;;6.70;100.00
68193;BME280;55012;47.562;18.414;2024-02-04T05:36:47;98211.41;;;6.70;100.00
68193;BME280;55012;47.562;18.414;2024-02-04T05:39:14;98220.34;;;6.74;100.00
68193;BME280;55012;47.562;18.414;2024-02-04T05:41:41;98232.56;;;6.72;100.00
68193;BME280;55012;47.562;18.414;2024-02-04T05:44:07;98235.25;;;6.72;100.00
68193;BME280;55012;47.562;18.414;2024-02-04T05:46:37;98248.00;;;6.75;100.00
68193;BME280;55012;47.562;18.414;2024-02-04T05:49:02;98250.53;;;6.84;100.00
68193;BME280;55012;47.562;18.414;2024-02-04T05:51:28;98262.59;;;6.90;100.00
68193;BME280;55012;47.562;18.414;2024-02-04T05:53:54;98281.84;;;6.92;100.00
68193;BME280;55012;47.562;18.414;2024-02-04T05:56:20;98285.31;;;6.92;100.00
68193;BME280;55012;47.562;18.414;2024-02-04T05:58:46;98298.66;;;6.89;100.00
68193;BME280;55012;47.562;18.414;2024-02-04T06:01:11;98318.72;;;6.91;100.00
68193;BME280;55012;47.562;18.414;2024-02-04T06:03:36;98309.28;;;6.97;100.00
68193;BME280;55012;47.562;18.414;2024-02-04T06:06:02;98367.72;;;7.00;100.00
68193;BME280;55012;47.562;18.414;2024-02-04T06:08:27;98404.59;;;7.00;100.00
68193;BME280;55012;47.562;18.414;2024-02-04T06:10:52;98445.84;;;7.04;100.00
68193;BME280;55012;47.562;18.414;2024-02-04T06:13:18;98447.75;;;7.03;100.00
68193;BME280;55012;47.562;18.414;2024-02-04T06:15:43;98471.59;;;7.05;100.00
68193;BME280;55012;47.562;18.414;2024-02-04T06:18:09;98521.91;;;7.04;100.00
68193;BME280;55012;47.562;18.414;2024-02-04T06:20:34;98549.13;;;7.03;100.00
68193;BME280;55012;47.562;18.414;2024-02-04T06:22:59;98564.94;;;7.04;100.00
68193;BME280;55012;47.562;18.414;2024-02-04T06:25:26;98576.25;;;7.10;100.00
68193;BME280;55012;47.562;18.414;2024-02-04T06:27:51;98564.34;;;7.11;100.00
68193;BME280;55012;47.562;18.414;2024-02-04T06:30:17;98593.50;;;7.09;100.00
68193;BME280;55012;47.562;18.414;2024-02-04T06:32:42;98602.47;;;7.13;100.00
68193;BME280;55012;47.562;18.414;2024-02-04T06:35:08;98597.19;;;7.17;100.00
68193;BME280;55012;47.562;18.414;2024-02-04T06:37:33;98619.63;;;7.21;100.00
68193;BME280;55012;47.562;18.414;2024-02-04T06:39:58;98616.69;;;7.26;100.00
68193;BME280;55012;47.562;18.414;2024-02-04T06:42:24;98617.59;;;7.30;100.00
68193;BME280;55012;47.562;18.414;2024-02-04T06:44:49;98643.13;;;7.36;100.00
68193;BME280;55012;47.562;18.414;2024-02-04T06:47:14;98635.06;;;7.36;100.00
68193;BME280;55012;47.562;18.414;2024-02-04T06:49:43;98653.25;;;7.39;100.00
68193;BME280;55012;47.562;18.414;2024-02-04T06:52:11;98656.28;;;7.38;100.00
68193;BME280;55012;47.562;18.414;2024-02-04T06:54:36;98642.13;;;7.41;100.00
68193;BME280;55012;47.562;18.414;2024-02-04T06:57:02;98688.31;;;7.43;100.00
68193;BME280;55012;47.562;18.414;2024-02-04T06:59:27;98672.94;;;7.43;100.00
68193;BME280;55012;47.562;18.414;2024-02-04T07:01:53;98689.22;;;7.47;100.00
68193;BME280;55012;47.562;18.414;2024-02-04T07:04:19;98688.53;;;7.50;100.00
68193;BME280;55012;47.562;18.414;2024-02-04T07:06:46;98694.38;;;7.52;100.00
68193;BME280;55012;47.562;18.414;2024-02-04T07:09:12;98703.69;;;7.54;100.00
68193;BME280;55012;47.562;18.414;2024-02-04T07:11:37;98710.63;;;7.55;100.00
68193;BME280;55012;47.562;18.414;2024-02-04T07:14:03;98701.53;;;7.60;100.00
68193;BME280;55012;47.562;18.414;2024-02-04T07:16:28;98707.50;;;7.66;100.00
68193;BME280;55012;47.562;18.414;2024-02-04T07:18:54;98707.28;;;7.71;100.00
68193;BME280;55012;47.562;18.414;2024-02-04T07:21:20;98705.47;;;7.75;100.00
68193;BME280;55012;47.562;18.414;2024-02-04T07:23:46;98711.41;;;7.80;100.00
68193;BME280;55012;47.562;18.414;2024-02-04T07:26:11;98712.97;;;7.81;100.00
68193;BME280;55012;47.562;18.414;2024-02-04T07:28:37;98741.91;;;7.84;100.00
68193;BME280;55012;47.562;18.414;2024-02-04T07:31:02;98755.28;;;7.81;100.00
68193;BME280;55012;47.562;18.414;2024-02-04T07:33:28;98771.66;;;7.76;100.00
68193;BME280;55012;47.562;18.414;2024-02-04T07:35:53;98752.69;;;7.72;100.00
68193;BME280;55012;47.562;18.414;2024-02-04T07:38:19;98762.34;;;7.73;100.00
68193;BME280;55012;47.562;18.414;2024-02-04T07:40:44;98771.31;;;7.77;100.00
68193;BME280;55012;47.562;18.414;2024-02-04T07:43:09;98795.09;;;7.75;100.00
68193;BME280;55012;47.562;18.414;2024-02-04T07:45:35;98763.47;;;7.72;100.00
68193;BME280;55012;47.562;18.414;2024-02-04T07:48:00;98768.41;;;7.70;100.00
68193;BME280;55012;47.562;18.414;2024-02-04T07:50:27;98814.50;;;7.69;100.00
68193;BME280;55012;47.562;18.414;2024-02-04T07:52:52;98753.59;;;7.64;100.00
68193;BME280;55012;47.562;18.414;2024-02-04T07:55:18;98750.91;;;7.64;100.00
68193;BME280;55012;47.562;18.414;2024-02-04T07:57:43;98741.59;;;7.62;100.00
68193;BME280;55012;47.562;18.414;2024-02-04T08:00:09;98770.41;;;7.61;100.00
68193;BME280;55012;47.562;18.414;2024-02-04T08:02:38;98764.22;;;7.60;100.00
68193;BME280;55012;47.562;18.414;2024-02-04T08:05:04;98765.84;;;7.62;100.00
68193;BME280;55012;47.562;18.414;2024-02-04T08:07:30;98762.13;;;7.66;100.00
68193;BME280;55012;47.562;18.414;2024-02-04T08:09:56;98761.13;;;7.71;100.00
68193;BME280;55012;47.562;18.414;2024-02-04T08:12:21;98768.16;;;7.75;100.00
68193;BME280;55012;47.562;18.414;2024-02-04T08:14:47;98782.97;;;7.81;100.00
68193;BME280;55012;47.562;18.414;2024-02-04T08:17:12;98762.22;;;7.82;100.00
68193;BME280;55012;47.562;18.414;2024-02-04T08:19:37;98783.09;;;7.85;100.00
68193;BME280;55012;47.562;18.414;2024-02-04T08:22:03;98811.25;;;7.87;100.00
68193;BME280;55012;47.562;18.414;2024-02-04T08:24:32;98790.84;;;7.86;100.00
68193;BME280;55012;47.562;18.414;2024-02-04T08:26:58;98805.28;;;7.94;100.00
68193;BME280;55012;47.562;18.414;2024-02-04T08:29:24;98802.94;;;8.05;100.00
68193;BME280;55012;47.562;18.414;2024-02-04T08:31:50;98817.63;;;8.07;100.00
68193;BME280;55012;47.562;18.414;2024-02-04T08:34:15;98797.91;;;8.03;100.00
68193;BME280;55012;47.562;18.414;2024-02-04T08:36:41;98839.88;;;8.04;100.00
68193;BME280;55012;47.562;18.414;2024-02-04T08:39:06;98813.03;;;8.08;100.00
68193;BME280;55012;47.562;18.414;2024-02-04T08:41:32;98821.91;;;8.08;100.00
68193;BME280;55012;47.562;18.414;2024-02-04T08:43:57;98850.09;;;8.11;100.00
68193;BME280;55012;47.562;18.414;2024-02-04T08:46:22;98820.00;;;8.21;100.00
68193;BME280;55012;47.562;18.414;2024-02-04T08:48:48;98840.66;;;8.29;100.00
68193;BME280;55012;47.562;18.414;2024-02-04T08:51:13;98870.38;;;8.33;100.00
68193;BME280;55012;47.562;18.414;2024-02-04T08:53:41;98874.56;;;8.30;100.00
68193;BME280;55012;47.562;18.414;2024-02-04T08:56:07;98851.06;;;8.31;100.00
68193;BME280;55012;47.562;18.414;2024-02-04T08:58:32;98858.16;;;8.48;100.00
68193;BME280;55012;47.562;18.414;2024-02-04T09:00:57;98828.81;;;8.58;100.00
68193;BME280;55012;47.562;18.414;2024-02-04T09:03:23;98899.13;;;8.78;100.00
68193;BME280;55012;47.562;18.414;2024-02-04T09:05:49;98859.75;;;8.89;100.00
68193;BME280;55012;47.562;18.414;2024-02-04T09:08:14;98878.69;;;9.05;100.00
68193;BME280;55012;47.562;18.414;2024-02-04T09:10:40;98909.25;;;9.09;100.00
68193;BME280;55012;47.562;18.414;2024-02-04T09:13:05;98933.88;;;9.07;100.00
68193;BME280;55012;47.562;18.414;2024-02-04T09:15:30;98919.03;;;9.01;100.00
68193;BME280;55012;47.562;18.414;2024-02-04T09:17:55;98925.00;;;9.07;100.00
68193;BME280;55012;47.562;18.414;2024-02-04T09:20:21;98945.88;;;9.10;100.00
68193;BME280;55012;47.562;18.414;2024-02-04T09:22:46;99000.66;;;9.10;100.00
68193;BME280;55012;47.562;18.414;2024-02-04T09:25:12;99012.56;;;9.09;100.00
68193;BME280;55012;47.562;18.414;2024-02-04T09:27:37;99009.63;;;9.14;100.00
68193;BME280;55012;47.562;18.414;2024-02-04T09:30:03;98996.72;;;9.20;100.00
68193;BME280;55012;47.562;18.414;2024-02-04T09:32:29;99077.41;;;9.25;100.00
68193;BME280;55012;47.562;18.414;2024-02-04T09:34:54;99026.34;;;9.32;100.00
68193;BME280;55012;47.562;18.414;2024-02-04T09:37:19;99038.94;;;9.40;100.00
68193;BME280;55012;47.562;18.414;2024-02-04T09:39:45;99094.63;;;9.45;100.00
68193;BME280;55012;47.562;18.414;2024-02-04T09:42:19;99096.84;;;9.55;100.00
68193;BME280;55012;47.562;18.414;2024-02-04T09:44:45;99063.88;;;9.62;100.00
68193;BME280;55012;47.562;18.414;2024-02-04T09:47:12;99074.41;;;9.67;100.00
68193;BME280;55012;47.562;18.414;2024-02-04T09:49:37;99132.25;;;9.66;100.00
68193;BME280;55012;47.562;18.414;2024-02-04T09:52:07;99138.31;;;9.75;100.00
68193;BME280;55012;47.562;18.414;2024-02-04T09:54:38;99144.38;;;9.84;100.00
68193;BME280;55012;47.562;18.414;2024-02-04T09:57:07;99203.50;;;9.85;100.00
68193;BME280;55012;47.562;18.414;2024-02-04T09:59:33;99158.00;;;9.88;100.00
68193;BME280;55012;47.562;18.414;2024-02-04T10:01:59;99243.00;;;9.90;100.00
68193;BME280;55012;47.562;18.414;2024-02-04T10:04:24;99226.34;;;9.88;100.00
68193;BME280;55012;47.562;18.414;2024-02-04T10:06:49;99246.47;;;10.03;100.00
68193;BME280;55012;47.562;18.414;2024-02-04T10:09:15;99186.63;;;10.17;100.00
68193;BME280;55012;47.562;18.414;2024-02-04T10:11:41;99246.09;;;10.17;100.00
68193;BME280;55012;47.562;18.414;2024-02-04T10:14:06;99255.31;;;10.16;100.00
68193;BME280;55012;47.562;18.414;2024-02-04T10:16:34;99232.13;;;10.14;100.00
68193;BME280;55012;47.562;18.414;2024-02-04T10:19:00;99254.09;;;10.13;100.00
68193;BME280;55012;47.562;18.414;2024-02-04T10:21:26;99251.50;;;10.17;100.00
68193;BME280;55012;47.562;18.414;2024-02-04T10:23:51;99242.38;;;10.21;100.00
68193;BME280;55012;47.562;18.414;2024-02-04T10:26:17;99232.94;;;10.27;100.00
68193;BME280;55012;47.562;18.414;2024-02-04T10:28:45;99264.78;;;10.22;100.00
68193;BME280;55012;47.562;18.414;2024-02-04T10:31:12;99266.13;;;10.16;100.00
68193;BME280;55012;47.562;18.414;2024-02-04T10:33:38;99304.00;;;10.16;100.00
68193;BME280;55012;47.562;18.414;2024-02-04T10:36:04;99248.00;;;10.16;100.00
68193;BME280;55012;47.562;18.414;2024-02-04T10:38:33;99255.88;;;10.21;100.00
68193;BME280;55012;47.562;18.414;2024-02-04T10:41:01;99267.41;;;10.18;100.00
68193;BME280;55012;47.562;18.414;2024-02-04T10:43:34;99254.78;;;10.22;100.00
68193;BME280;55012;47.562;18.414;2024-02-04T10:46:18;99267.72;;;10.29;100.00
68193;BME280;55012;47.562;18.414;2024-02-04T10:48:45;99283.16;;;10.28;100.00
68193;BME280;55012;47.562;18.414;2024-02-04T10:51:14;99261.97;;;10.30;100.00
68193;BME280;55012;47.562;18.414;2024-02-04T10:53:44;99222.66;;;10.33;100.00
68193;BME280;55012;47.562;18.414;2024-02-04T10:56:29;99258.44;;;10.42;100.00
68193;BME280;55012;47.562;18.414;2024-02-04T10:58:56;99291.94;;;10.37;100.00
68193;BME280;55012;47.562;18.414;2024-02-04T11:01:24;99300.25;;;10.45;100.00
68193;BME280;55012;47.562;18.414;2024-02-04T11:03:51;99307.94;;;10.43;100.00
68193;BME280;55012;47.562;18.414;2024-02-04T11:06:18;99265.88;;;10.45;100.00
68193;BME280;55012;47.562;18.414;2024-02-04T11:08:46;99322.69;;;10.45;100.00
68193;BME280;55012;47.562;18.414;2024-02-04T11:11:11;99261.25;;;10.46;100.00
68193;BME280;55012;47.562;18.414;2024-02-04T11:13:37;99236.34;;;10.52;100.00
68193;BME280;55012;47.562;18.414;2024-02-04T11:16:07;99396.81;;;10.56;100.00
68193;BME280;55012;47.562;18.414;2024-02-04T11:26:35;99214.03;;;10.71;100.00
68193;BME280;55012;47.562;18.414;2024-02-04T11:29:03;99312.78;;;10.77;100.00
68193;BME280;55012;47.562;18.414;2024-02-04T11:31:29;99287.19;;;10.75;100.00
68193;BME280;55012;47.562;18.414;2024-02-04T11:33:56;99320.91;;;10.77;100.00
68193;BME280;55012;47.562;18.414;2024-02-04T11:36:24;99303.53;;;10.78;100.00
68193;BME280;55012;47.562;18.414;2024-02-04T11:38:50;99282.53;;;10.87;100.00
68193;BME280;55012;47.562;18.414;2024-02-04T11:41:23;99285.56;;;10.86;100.00
68193;BME280;55012;47.562;18.414;2024-02-04T11:43:56;99285.50;;;10.98;100.00
68193;BME280;55012;47.562;18.414;2024-02-04T11:46:22;99327.66;;;11.11;100.00
68193;BME280;55012;47.562;18.414;2024-02-04T11:48:53;99267.91;;;11.20;100.00
68193;BME280;55012;47.562;18.414;2024-02-04T11:51:22;99211.59;;;11.25;100.00
68193;BME280;55012;47.562;18.414;2024-02-04T11:53:50;99262.50;;;11.20;100.00
68193;BME280;55012;47.562;18.414;2024-02-04T11:56:15;99212.09;;;11.15;100.00
68193;BME280;55012;47.562;18.414;2024-02-04T11:58:40;99244.31;;;11.05;100.00
68193;BME280;55012;47.562;18.414;2024-02-04T12:01:10;99190.59;;;11.07;100.00
68193;BME280;55012;47.562;18.414;2024-02-04T12:03:35;99340.28;;;11.07;100.00
68193;BME280;55012;47.562;18.414;2024-02-04T12:06:03;99283.50;;;10.95;100.00
68193;BME280;55012;47.562;18.414;2024-02-04T12:08:30;99312.94;;;10.96;100.00
68193;BME280;55012;47.562;18.414;2024-02-04T12:10:57;99282.75;;;11.10;100.00
68193;BME280;55012;47.562;18.414;2024-02-04T12:13:23;99313.59;;;11.21;100.00
68193;BME280;55012;47.562;18.414;2024-02-04T12:15:49;99330.38;;;11.27;100.00
68193;BME280;55012;47.562;18.414;2024-02-04T12:18:14;99349.44;;;11.31;100.00
68193;BME280;55012;47.562;18.414;2024-02-04T12:20:41;99289.84;;;11.31;100.00
68193;BME280;55012;47.562;18.414;2024-02-04T12:23:07;99259.09;;;11.39;100.00
68193;BME280;55012;47.562;18.414;2024-02-04T12:25:34;99318.94;;;11.49;100.00
68193;BME280;55012;47.562;18.414;2024-02-04T12:28:00;99326.66;;;11.47;100.00
68193;BME280;55012;47.562;18.414;2024-02-04T12:30:28;99337.75;;;11.42;100.00
68193;BME280;55012;47.562;18.414;2024-02-04T12:32:58;99293.88;;;11.37;100.00
68193;BME280;55012;47.562;18.414;2024-02-04T12:35:27;99298.94;;;11.38;100.00
68193;BME280;55012;47.562;18.414;2024-02-04T12:37:56;99263.13;;;11.45;100.00
68193;BME280;55012;47.562;18.414;2024-02-04T12:40:25;99262.69;;;11.43;100.00
68193;BME280;55012;47.562;18.414;2024-02-04T12:42:58;99283.41;;;11.51;100.00
68193;BME280;55012;47.562;18.414;2024-02-04T12:45:25;99304.72;;;11.52;100.00
68193;BME280;55012;47.562;18.414;2024-02-04T12:47:52;99317.75;;;11.63;100.00
68193;BME280;55012;47.562;18.414;2024-02-04T12:50:19;99276.56;;;11.57;100.00
68193;BME280;55012;47.562;18.414;2024-02-04T12:52:48;99270.28;;;11.53;100.00
68193;BME280;55012;47.562;18.414;2024-02-04T12:55:23;99315.47;;;11.49;100.00
68193;BME280;55012;47.562;18.414;2024-02-04T12:57:48;99266.00;;;11.52;100.00